createdAt,value
2019-02-17T08:22:08.190Z,1424.00
2019-02-17T08:22:43.675Z,1448.00
2019-02-17T08:23:19.302Z,1452.00
2019-02-17T08:23:54.957Z,1488.00
2019-02-17T08:24:30.349Z,1444.00
2019-02-17T08:25:05.569Z,1448.00
2019-02-17T08:25:40.845Z,1476.00
2019-02-17T08:26:16.062Z,1532.00
2019-02-17T08:26:51.444Z,1560.00
2019-02-17T08:27:26.764Z,1600.00
2019-02-17T08:28:02.012Z,1616.00
2019-02-17T08:28:37.531Z,1632.00
2019-02-17T08:29:12.639Z,1656.00
2019-02-17T08:29:48.257Z,1720.00
2019-02-17T08:30:23.348Z,1772.00
2019-02-17T08:30:59.154Z,1796.00
2019-02-17T08:31:34.438Z,1824.00
2019-02-17T08:32:09.937Z,1864.00
2019-02-17T08:32:45.194Z,1888.00
2019-02-17T08:33:20.838Z,1924.00
2019-02-17T08:33:56.110Z,1932.00
2019-02-17T08:34:31.635Z,1832.00
2019-02-17T08:35:07.001Z,1780.00
2019-02-17T08:35:42.198Z,1812.00
2019-02-17T08:36:17.364Z,1736.00
2019-02-17T08:36:52.797Z,1660.00
2019-02-17T08:37:28.157Z,1720.00
2019-02-17T08:38:04.029Z,1872.00
2019-02-17T08:38:39.195Z,2092.00
2019-02-17T08:39:14.507Z,2196.00
2019-02-17T08:39:50.126Z,2192.00
2019-02-17T08:40:25.438Z,2204.00
2019-02-17T08:41:00.989Z,2284.00
2019-02-17T08:41:36.503Z,2288.00
2019-02-17T08:42:12.182Z,2336.00
2019-02-17T08:42:47.404Z,2372.00
2019-02-17T08:43:22.737Z,2464.00
2019-02-17T08:44:00.734Z,2588.00
2019-02-17T08:44:33.903Z,2660.00
2019-02-17T08:45:09.508Z,2716.00
2019-02-17T08:45:44.751Z,2684.00
2019-02-17T08:46:19.961Z,2692.00
2019-02-17T08:46:55.592Z,2756.00
2019-02-17T08:47:31.014Z,2764.00
2019-02-17T08:48:06.392Z,2772.00
2019-02-17T08:48:41.517Z,2780.00
2019-02-17T08:49:17.021Z,2772.00
2019-02-17T08:49:52.527Z,2756.00
2019-02-17T08:50:27.800Z,2776.00
2019-02-17T08:51:03.276Z,2792.00
2019-02-17T08:51:38.637Z,2780.00
2019-02-17T08:52:13.966Z,2804.00
2019-02-17T08:52:49.245Z,2816.00
2019-02-17T08:53:24.643Z,2840.00
2019-02-17T08:53:59.717Z,2892.00
2019-02-17T08:54:34.931Z,2940.00
2019-02-17T08:55:10.224Z,2996.00
2019-02-17T08:55:45.557Z,2968.00
2019-02-17T08:56:21.943Z,2892.00
2019-02-17T08:56:57.663Z,2896.00
2019-02-17T08:57:32.962Z,3020.00
2019-02-17T08:58:08.287Z,3152.00
2019-02-17T08:58:43.546Z,3328.00
2019-02-17T08:59:19.080Z,3284.00
2019-02-17T08:59:54.554Z,3308.00
2019-02-17T09:00:29.770Z,3284.00
2019-02-17T09:01:05.187Z,3136.00
2019-02-17T09:01:41.221Z,3080.00
2019-02-17T09:02:16.618Z,2728.00
2019-02-17T09:02:52.039Z,2560.00
2019-02-17T09:03:27.236Z,2572.00
2019-02-17T09:04:02.638Z,2708.00
2019-02-17T09:04:38.118Z,2664.00
2019-02-17T09:05:13.431Z,2516.00
2019-02-17T09:05:48.607Z,2628.00
2019-02-17T09:06:24.154Z,2592.00
2019-02-17T09:06:59.363Z,2780.00
2019-02-17T09:07:34.872Z,3112.00
2019-02-17T09:08:10.366Z,3524.00
2019-02-17T09:08:45.587Z,3588.00
2019-02-17T09:09:20.892Z,3672.00
2019-02-17T09:09:56.126Z,3660.00
2019-02-17T09:10:31.295Z,3776.00
2019-02-17T09:11:06.690Z,3728.00
2019-02-17T09:11:42.107Z,3728.00
2019-02-17T09:12:17.423Z,3856.00
2019-02-17T09:12:52.596Z,3900.00
2019-02-17T09:13:27.999Z,3868.00
2019-02-17T09:14:03.203Z,3816.00
2019-02-17T09:14:38.321Z,3788.00
2019-02-17T09:15:13.511Z,3680.00
2019-02-17T09:15:48.624Z,3612.00
2019-02-17T09:16:24.100Z,3644.00
2019-02-17T09:16:59.399Z,3688.00
2019-02-17T09:17:34.774Z,3684.00
2019-02-17T09:18:09.996Z,3684.00
2019-02-17T09:18:45.399Z,3656.00
2019-02-17T09:19:20.613Z,3708.00
2019-02-17T09:19:55.795Z,3756.00
2019-02-17T09:20:31.318Z,3656.00
2019-02-17T09:21:06.741Z,3680.00
2019-02-17T09:21:42.429Z,3700.00
2019-02-17T09:22:17.726Z,3760.00
2019-02-17T09:22:52.930Z,3788.00
2019-02-17T09:23:28.298Z,3748.00
2019-02-17T09:24:03.622Z,3580.00
2019-02-17T09:24:39.108Z,3384.00
2019-02-17T09:25:14.614Z,3300.00
2019-02-17T09:25:49.818Z,3472.00
2019-02-17T09:26:25.166Z,3632.00
2019-02-17T09:27:00.462Z,3680.00
2019-02-17T09:27:35.923Z,3748.00
2019-02-17T09:28:11.100Z,3948.00
2019-02-17T09:28:46.434Z,4000.00
2019-02-17T09:29:21.714Z,3952.00
2019-02-17T09:29:57.136Z,3908.00
2019-02-17T09:30:32.579Z,3828.00
2019-02-17T09:31:08.191Z,3808.00
2019-02-17T09:31:43.385Z,3920.00
2019-02-17T09:32:18.715Z,3828.00
2019-02-17T09:32:54.253Z,3800.00
2019-02-17T09:33:29.564Z,3696.00
2019-02-17T09:34:04.842Z,3704.00
2019-02-17T09:34:40.089Z,3696.00
2019-02-17T09:35:15.698Z,3676.00
2019-02-17T09:35:50.809Z,3580.00
2019-02-17T09:36:26.189Z,3416.00
2019-02-17T09:37:01.716Z,3488.00
2019-02-17T09:37:36.897Z,3560.00
2019-02-17T09:38:12.047Z,3656.00
2019-02-17T09:38:47.542Z,3676.00
2019-02-17T09:39:22.858Z,3728.00
2019-02-17T09:39:58.034Z,3756.00
2019-02-17T09:40:33.445Z,3616.00
2019-02-17T09:41:08.522Z,3368.00
2019-02-17T09:41:44.733Z,3444.00
2019-02-17T09:42:20.111Z,3368.00
2019-02-17T09:42:55.533Z,3368.00
2019-02-17T09:43:31.071Z,3328.00
2019-02-17T09:44:06.301Z,3260.00
2019-02-17T09:44:41.883Z,3244.00
2019-02-17T09:45:16.913Z,3204.00
2019-02-17T09:45:52.095Z,3164.00
2019-02-17T09:46:27.310Z,3368.00
2019-02-17T09:47:02.488Z,3428.00
2019-02-17T09:47:37.812Z,3480.00
2019-02-17T09:48:13.105Z,3476.00
2019-02-17T09:48:48.544Z,3544.00
2019-02-17T09:49:23.713Z,3532.00
2019-02-17T09:49:59.338Z,3452.00
2019-02-17T09:50:34.530Z,3408.00
2019-02-17T09:51:09.645Z,3444.00
2019-02-17T09:51:45.033Z,3376.00
2019-02-17T09:52:20.554Z,3336.00
2019-02-17T09:52:55.850Z,3168.00
2019-02-17T09:53:30.948Z,3116.00
2019-02-17T09:54:06.381Z,3084.00
2019-02-17T09:54:41.796Z,3188.00
2019-02-17T09:55:17.180Z,3180.00
2019-02-17T09:55:52.476Z,3208.00
2019-02-17T09:56:27.860Z,3224.00
2019-02-17T09:57:03.196Z,3232.00
2019-02-17T09:57:38.716Z,3208.00
2019-02-17T09:58:14.041Z,3060.00
2019-02-17T09:58:49.409Z,3156.00
2019-02-17T09:59:24.751Z,3240.00
2019-02-17T09:59:59.738Z,3184.00
2019-02-17T10:00:35.447Z,3104.00
2019-02-17T10:01:10.835Z,3172.00
2019-02-17T10:01:46.062Z,3160.00
2019-02-17T10:02:26.553Z,3144.00
2019-02-17T10:02:57.190Z,3192.00
2019-02-17T10:03:32.696Z,3448.00
2019-02-17T10:04:07.905Z,3420.00
2019-02-17T10:04:43.134Z,3428.00
2019-02-17T10:05:18.573Z,3564.00
2019-02-17T10:05:53.950Z,3508.00
2019-02-17T10:06:29.178Z,3540.00
2019-02-17T10:07:04.550Z,3340.00
2019-02-17T10:07:40.390Z,3368.00
2019-02-17T10:08:15.678Z,3672.00
2019-02-17T10:08:51.182Z,3556.00
2019-02-17T10:09:26.365Z,3680.00
2019-02-17T10:10:01.842Z,3904.00
2019-02-17T10:10:37.423Z,4048.00
2019-02-17T10:11:12.731Z,4072.00
2019-02-17T10:11:47.946Z,4052.00
2019-02-17T10:12:23.359Z,4136.00
2019-02-17T10:13:01.175Z,4084.00
2019-02-17T10:13:34.249Z,4080.00
2019-02-17T10:14:09.442Z,4032.00
2019-02-17T10:14:44.658Z,4096.00
2019-02-17T10:15:19.987Z,4160.00
2019-02-17T10:15:55.428Z,4188.00
2019-02-17T10:16:30.629Z,4112.00
2019-02-17T10:17:06.036Z,4040.00
2019-02-17T10:17:41.227Z,3964.00
2019-02-17T10:18:16.666Z,4080.00
2019-02-17T10:18:51.758Z,4000.00
2019-02-17T10:19:27.277Z,4164.00
2019-02-17T10:20:02.555Z,4240.00
2019-02-17T10:20:37.826Z,4328.00
2019-02-17T10:21:13.412Z,4328.00
2019-02-17T10:21:48.831Z,4372.00
2019-02-17T10:22:24.211Z,4324.00
2019-02-17T10:22:59.623Z,4212.00
2019-02-17T10:23:34.920Z,4116.00
2019-02-17T10:24:10.368Z,4060.00
2019-02-17T10:24:45.746Z,4132.00
2019-02-17T10:25:20.974Z,4044.00
2019-02-17T10:25:56.600Z,4064.00
2019-02-17T10:26:31.620Z,4048.00
2019-02-17T10:27:06.695Z,4040.00
2019-02-17T10:27:42.296Z,4040.00
2019-02-17T10:28:17.672Z,3996.00
2019-02-17T10:28:52.991Z,4004.00
2019-02-17T10:29:28.469Z,3992.00
2019-02-17T10:30:04.088Z,3912.00
2019-02-17T10:30:39.663Z,3904.00
2019-02-17T10:31:15.034Z,3948.00
2019-02-17T10:31:50.614Z,3952.00
2019-02-17T10:32:35.811Z,3884.00
2019-02-17T10:33:01.396Z,3856.00
2019-02-17T10:33:38.097Z,3704.00
2019-02-17T10:34:13.417Z,3604.00
2019-02-17T10:34:48.937Z,3660.00
2019-02-17T10:35:24.245Z,3672.00
2019-02-17T10:35:59.975Z,3640.00
2019-02-17T10:36:35.370Z,3640.00
2019-02-17T10:37:10.881Z,3672.00
2019-02-17T10:37:46.255Z,3572.00
2019-02-17T10:38:21.798Z,3544.00
2019-02-17T10:38:58.412Z,3480.00
2019-02-17T10:39:32.326Z,3444.00
2019-02-17T10:40:07.720Z,3408.00
2019-02-17T10:40:43.240Z,3312.00
2019-02-17T10:41:18.629Z,3224.00
2019-02-17T10:41:54.530Z,3220.00
2019-02-17T10:42:29.712Z,3168.00
2019-02-17T10:43:04.824Z,3104.00
2019-02-17T10:43:40.008Z,3048.00
2019-02-17T10:44:15.431Z,3012.00
2019-02-17T10:44:50.941Z,2940.00
2019-02-17T10:45:26.549Z,2908.00
2019-02-17T10:46:01.732Z,2948.00
2019-02-17T10:46:37.616Z,2780.00
2019-02-17T10:47:13.336Z,2828.00
2019-02-17T10:47:48.772Z,2712.00
2019-02-17T10:48:23.941Z,2732.00
2019-02-17T10:48:59.357Z,2688.00
2019-02-17T10:49:34.874Z,2660.00
2019-02-17T10:50:10.488Z,2596.00
2019-02-17T10:50:45.680Z,2536.00
2019-02-17T10:51:21.400Z,2496.00
2019-02-17T10:51:57.087Z,2412.00
2019-02-17T10:52:32.522Z,2400.00
2019-02-17T10:53:07.614Z,2380.00
2019-02-17T10:53:42.846Z,2316.00
2019-02-17T10:54:18.122Z,2268.00
2019-02-17T10:54:53.366Z,2216.00
2019-02-17T10:55:28.735Z,2208.00
2019-02-17T10:56:04.365Z,2160.00
2019-02-17T10:56:39.566Z,2128.00
2019-02-17T10:57:14.959Z,2072.00
2019-02-17T10:57:50.297Z,2008.00
2019-02-17T10:58:25.922Z,2024.00
2019-02-17T10:59:01.305Z,2032.00
2019-02-17T10:59:36.587Z,2072.00
2019-02-17T11:00:12.033Z,2072.00
2019-02-17T11:00:47.261Z,2044.00
2019-02-17T11:01:22.659Z,2028.00
2019-02-17T11:01:57.956Z,2056.00
2019-02-17T11:02:33.341Z,2036.00
2019-02-17T11:03:08.822Z,2052.00
2019-02-17T11:03:44.233Z,2000.00
2019-02-17T11:04:19.650Z,1956.00
2019-02-17T11:04:54.919Z,1964.00
2019-02-17T11:05:30.039Z,1980.00
2019-02-17T11:06:05.335Z,1924.00
2019-02-17T11:06:40.663Z,1932.00
2019-02-17T11:07:16.183Z,1976.00
2019-02-17T11:07:51.605Z,1932.00
2019-02-17T11:08:27.056Z,1916.00
2019-02-17T11:09:02.551Z,1896.00
2019-02-17T11:09:38.178Z,1876.00
2019-02-17T11:10:13.490Z,1880.00
2019-02-17T11:10:48.791Z,1864.00
2019-02-17T11:11:24.324Z,1824.00
2019-02-17T11:11:59.911Z,1840.00
2019-02-17T11:12:35.545Z,1836.00
2019-02-17T11:13:10.853Z,1840.00
2019-02-17T11:13:46.309Z,1844.00
2019-02-17T11:14:21.899Z,1828.00
2019-02-17T11:14:57.530Z,1824.00
2019-02-17T11:15:33.226Z,1808.00
2019-02-17T11:16:08.653Z,1840.00
2019-02-17T11:16:43.944Z,1824.00
2019-02-17T11:17:19.186Z,1840.00
2019-02-17T11:17:54.698Z,1844.00
2019-02-17T11:18:29.940Z,1824.00
2019-02-17T11:19:05.318Z,1828.00
2019-02-17T11:19:40.600Z,1812.00
2019-02-17T11:20:15.993Z,1824.00
2019-02-17T11:20:51.232Z,1832.00
2019-02-17T11:21:26.607Z,1780.00
2019-02-17T11:22:02.142Z,1812.00
2019-02-17T11:22:37.329Z,1804.00
2019-02-17T11:23:12.568Z,1800.00
2019-02-17T11:23:47.870Z,1788.00
2019-02-17T11:24:23.412Z,1780.00
2019-02-17T11:24:58.734Z,1804.00
2019-02-17T11:25:34.125Z,1780.00
2019-02-17T11:26:09.455Z,1780.00
2019-02-17T11:26:45.088Z,1784.00
2019-02-17T11:27:20.404Z,1776.00
2019-02-17T11:27:55.528Z,1764.00
2019-02-17T11:28:30.813Z,1692.00
2019-02-17T11:29:06.268Z,1740.00
2019-02-17T11:29:41.381Z,1760.00
2019-02-17T11:30:16.912Z,1736.00
2019-02-17T11:30:52.321Z,1720.00
2019-02-17T11:31:27.667Z,1712.00
2019-02-17T11:32:03.088Z,1704.00
2019-02-17T11:32:38.208Z,1708.00
2019-02-17T11:33:13.609Z,1684.00
2019-02-17T11:33:49.224Z,1688.00
2019-02-17T11:34:24.315Z,1656.00
2019-02-17T11:34:59.678Z,1668.00
2019-02-17T11:35:35.278Z,1604.00
2019-02-17T11:36:10.724Z,1628.00
2019-02-17T11:36:46.232Z,1652.00
2019-02-17T11:37:22.006Z,1652.00
2019-02-17T11:37:57.619Z,1656.00
2019-02-17T11:38:32.977Z,1664.00
2019-02-17T11:39:08.381Z,1628.00
2019-02-17T11:39:43.799Z,1652.00
2019-02-17T11:40:19.337Z,1660.00
2019-02-17T11:40:54.762Z,1632.00
2019-02-17T11:41:30.087Z,1640.00
2019-02-17T11:42:05.335Z,1660.00
2019-02-17T11:42:40.857Z,1652.00
2019-02-17T11:43:16.220Z,1708.00
2019-02-17T11:43:51.525Z,1692.00
2019-02-17T11:44:26.685Z,1656.00
2019-02-17T11:45:02.274Z,1616.00
2019-02-17T11:45:38.007Z,1652.00
2019-02-17T11:46:13.195Z,1620.00
2019-02-17T11:46:48.728Z,1604.00
2019-02-17T11:47:24.322Z,1624.00
2019-02-17T11:47:59.761Z,1616.00
2019-02-17T11:48:35.148Z,1644.00
2019-02-17T11:49:10.471Z,1632.00
2019-02-17T11:49:45.678Z,1636.00
2019-02-17T11:50:21.006Z,1656.00
2019-02-17T11:50:56.435Z,1608.00
2019-02-17T11:51:31.758Z,1480.00
2019-02-17T11:52:07.265Z,1596.00
2019-02-17T11:52:42.797Z,1568.00
2019-02-17T11:53:18.302Z,1384.00
2019-02-17T11:53:53.931Z,1412.00
2019-02-17T11:54:29.227Z,1384.00
2019-02-17T11:55:04.698Z,1416.00
2019-02-17T11:55:40.226Z,1468.00
2019-02-17T11:56:15.465Z,1528.00
2019-02-17T11:56:50.828Z,1556.00
2019-02-17T11:57:26.230Z,1484.00
2019-02-17T11:58:01.532Z,1420.00
2019-02-17T11:58:37.066Z,1456.00
2019-02-17T11:59:12.418Z,1520.00
2019-02-17T11:59:47.657Z,1512.00
2019-02-17T12:00:23.215Z,1368.00
2019-02-17T12:00:58.677Z,1328.00
2019-02-17T12:01:34.463Z,1412.00
2019-02-17T12:02:09.901Z,1448.00
2019-02-17T12:02:45.180Z,1440.00
2019-02-17T12:03:20.712Z,1468.00
2019-02-17T12:03:56.101Z,1468.00
2019-02-17T12:04:31.894Z,1464.00
2019-02-17T12:05:07.161Z,1488.00
2019-02-17T12:05:42.791Z,1524.00
2019-02-17T12:06:18.192Z,1516.00
2019-02-17T12:06:53.653Z,1520.00
2019-02-17T12:07:28.878Z,1536.00
2019-02-17T12:08:04.393Z,1552.00
2019-02-17T12:08:39.601Z,1540.00
2019-02-17T12:09:14.932Z,1528.00
2019-02-17T12:09:50.253Z,1508.00
2019-02-17T12:10:25.802Z,1476.00
2019-02-17T12:11:01.132Z,1532.00
2019-02-17T12:11:37.310Z,1552.00
2019-02-17T12:12:13.729Z,1460.00
2019-02-17T12:12:48.219Z,1452.00
2019-02-17T12:13:23.526Z,1484.00
2019-02-17T12:13:59.185Z,1448.00
2019-02-17T12:14:34.686Z,1396.00
2019-02-17T12:15:10.319Z,1424.00
2019-02-17T12:15:46.011Z,1444.00
2019-02-17T12:16:21.763Z,1444.00
2019-02-17T12:16:57.077Z,1472.00
2019-02-17T12:17:32.768Z,1420.00
2019-02-17T12:18:08.254Z,1468.00
2019-02-17T12:18:43.690Z,1464.00
2019-02-17T12:19:18.668Z,1436.00
2019-02-17T12:19:53.834Z,1444.00
2019-02-17T12:20:29.018Z,1484.00
2019-02-17T12:21:04.353Z,1464.00
2019-02-17T12:21:39.878Z,1472.00
2019-02-17T12:22:15.507Z,1468.00
2019-02-17T12:22:50.846Z,1456.00
2019-02-17T12:23:26.287Z,1432.00
2019-02-17T12:24:02.616Z,1416.00
2019-02-17T12:24:37.163Z,1364.00
2019-02-17T12:25:12.746Z,1336.00
2019-02-17T12:25:48.112Z,1372.00
2019-02-17T12:26:23.399Z,1340.00
2019-02-17T12:26:58.966Z,1320.00
2019-02-17T12:27:34.268Z,1272.00
2019-02-17T12:28:10.039Z,1248.00
2019-02-17T12:28:45.556Z,1312.00
2019-02-17T12:29:20.868Z,1252.00
2019-02-17T12:29:56.395Z,1232.00
2019-02-17T12:30:32.023Z,1252.00
2019-02-17T12:31:07.329Z,1188.00
2019-02-17T12:31:42.758Z,1156.00
2019-02-17T12:32:18.074Z,1152.00
2019-02-17T12:32:53.500Z,1168.00
2019-02-17T12:33:28.714Z,1152.00
2019-02-17T12:34:04.246Z,1128.00
2019-02-17T12:34:39.338Z,1136.00
2019-02-17T12:35:14.657Z,1064.00
2019-02-17T12:35:50.065Z,1020.00
2019-02-17T12:36:25.385Z,996.00
2019-02-17T12:37:00.772Z,1028.00
2019-02-17T12:37:35.902Z,992.00
2019-02-17T12:38:11.508Z,988.00
2019-02-17T12:38:47.007Z,1004.00
2019-02-17T12:39:22.303Z,968.00
2019-02-17T12:39:57.695Z,964.00
2019-02-17T12:40:33.148Z,960.00
2019-02-17T12:41:08.523Z,964.00
2019-02-17T12:41:43.963Z,904.00
2019-02-17T12:42:19.403Z,904.00
2019-02-17T12:42:54.704Z,912.00
2019-02-17T12:43:30.484Z,876.00
2019-02-17T12:44:05.704Z,860.00
2019-02-17T12:44:40.945Z,864.00
2019-02-17T12:45:18.226Z,916.00
2019-02-17T12:45:51.574Z,868.00
2019-02-17T12:46:26.899Z,912.00
2019-02-17T12:47:02.440Z,872.00
2019-02-17T12:47:37.999Z,868.00
2019-02-17T12:48:13.439Z,856.00
2019-02-17T12:48:48.749Z,852.00
2019-02-17T12:49:24.155Z,824.00
2019-02-17T12:49:59.383Z,852.00
2019-02-17T12:50:34.727Z,840.00
2019-02-17T12:51:10.141Z,796.00
2019-02-17T12:51:46.018Z,824.00
2019-02-17T12:52:21.412Z,784.00
2019-02-17T12:52:56.897Z,784.00
2019-02-17T12:53:32.606Z,800.00
2019-02-17T12:54:08.069Z,800.00
2019-02-17T12:54:43.518Z,764.00
2019-02-17T12:55:18.840Z,756.00
2019-02-17T12:55:54.198Z,780.00
2019-02-17T12:56:29.496Z,796.00
2019-02-17T12:57:04.834Z,788.00
2019-02-17T12:57:40.587Z,784.00
2019-02-17T12:58:15.837Z,776.00
2019-02-17T12:58:51.191Z,784.00
2019-02-17T12:59:26.470Z,780.00
2019-02-17T13:00:02.026Z,772.00
2019-02-17T13:00:37.222Z,768.00
2019-02-17T13:01:13.552Z,768.00
2019-02-17T13:01:48.531Z,728.00
2019-02-17T13:02:23.550Z,736.00
2019-02-17T13:02:58.756Z,740.00
2019-02-17T13:03:33.989Z,724.00
2019-02-17T13:04:09.278Z,724.00
2019-02-17T13:04:44.501Z,720.00
2019-02-17T13:05:20.173Z,716.00
2019-02-17T13:05:55.442Z,716.00
2019-02-17T13:06:31.024Z,708.00
2019-02-17T13:07:06.151Z,700.00
2019-02-17T13:07:42.909Z,696.00
2019-02-17T13:08:17.504Z,676.00
2019-02-17T13:08:52.707Z,684.00
2019-02-17T13:09:28.129Z,704.00
2019-02-17T13:10:03.628Z,676.00
2019-02-17T13:10:38.979Z,672.00
2019-02-17T13:11:14.477Z,696.00
2019-02-17T13:11:49.698Z,684.00
2019-02-17T13:12:24.995Z,680.00
2019-02-17T13:13:01.222Z,688.00
2019-02-17T13:13:36.517Z,680.00
2019-02-17T13:14:11.953Z,688.00
2019-02-17T13:14:47.356Z,680.00
2019-02-17T13:15:22.684Z,692.00
2019-02-17T13:15:57.814Z,688.00
2019-02-17T13:16:33.336Z,728.00
2019-02-17T13:17:08.959Z,720.00
2019-02-17T13:17:44.395Z,700.00
2019-02-17T13:18:19.584Z,716.00
2019-02-17T13:18:55.004Z,712.00
2019-02-17T13:19:30.348Z,712.00
2019-02-17T13:20:05.861Z,708.00
2019-02-17T13:20:41.179Z,680.00
2019-02-17T13:21:16.693Z,688.00
2019-02-17T13:21:52.170Z,684.00
2019-02-17T13:22:27.496Z,676.00
2019-02-17T13:23:02.994Z,672.00
2019-02-17T13:23:38.437Z,692.00
2019-02-17T13:24:13.742Z,664.00
2019-02-17T13:24:49.183Z,660.00
2019-02-17T13:25:24.590Z,676.00
2019-02-17T13:25:59.926Z,672.00
2019-02-17T13:26:35.536Z,668.00
2019-02-17T13:27:10.768Z,680.00
2019-02-17T13:27:46.039Z,688.00
2019-02-17T13:28:21.551Z,688.00
2019-02-17T13:28:56.953Z,668.00
2019-02-17T13:29:32.179Z,668.00
2019-02-17T13:30:07.487Z,680.00
2019-02-17T13:30:43.123Z,676.00
2019-02-17T13:31:18.726Z,668.00
2019-02-17T13:31:54.181Z,696.00
2019-02-17T13:32:29.572Z,680.00
2019-02-17T13:33:05.003Z,672.00
2019-02-17T13:33:40.288Z,696.00
2019-02-17T13:34:15.612Z,704.00
2019-02-17T13:34:51.128Z,704.00
2019-02-17T13:35:26.673Z,716.00
2019-02-17T13:36:02.171Z,724.00
2019-02-17T13:36:37.584Z,724.00
2019-02-17T13:37:13.116Z,684.00
2019-02-17T13:37:48.351Z,752.00
2019-02-17T13:38:23.652Z,692.00
2019-02-17T13:38:58.763Z,684.00
2019-02-17T13:39:34.154Z,688.00
2019-02-17T13:40:09.680Z,708.00
2019-02-17T13:40:44.969Z,684.00
2019-02-17T13:41:20.376Z,692.00
2019-02-17T13:41:55.664Z,676.00
2019-02-17T13:42:31.224Z,668.00
2019-02-17T13:43:06.832Z,732.00
2019-02-17T13:43:42.250Z,668.00
2019-02-17T13:44:17.549Z,672.00
2019-02-17T13:44:52.783Z,684.00
2019-02-17T13:45:28.182Z,688.00
2019-02-17T13:46:03.704Z,692.00
2019-02-17T13:46:39.206Z,672.00
2019-02-17T13:47:14.631Z,700.00
2019-02-17T13:47:50.359Z,748.00
2019-02-17T13:48:25.698Z,704.00
2019-02-17T13:49:00.797Z,696.00
2019-02-17T13:49:36.016Z,696.00
2019-02-17T13:50:11.330Z,708.00
2019-02-17T13:50:47.023Z,692.00
2019-02-17T13:51:22.167Z,688.00
2019-02-17T13:51:57.499Z,744.00
2019-02-17T13:52:32.925Z,688.00
2019-02-17T13:53:11.847Z,660.00
2019-02-17T13:53:43.803Z,660.00
2019-02-17T13:54:18.936Z,656.00
2019-02-17T13:54:54.267Z,720.00
2019-02-17T13:55:29.495Z,672.00
2019-02-17T13:56:04.892Z,672.00
2019-02-17T13:56:40.411Z,676.00
2019-02-17T13:57:15.822Z,656.00
2019-02-17T13:57:52.427Z,620.00
2019-02-17T13:58:26.678Z,608.00
2019-02-17T13:59:02.011Z,632.00
2019-02-17T13:59:37.533Z,616.00
2019-02-17T14:00:12.862Z,624.00
2019-02-17T14:00:48.166Z,632.00
2019-02-17T14:01:23.692Z,636.00
2019-02-17T14:01:58.905Z,624.00
2019-02-17T14:02:34.533Z,616.00
2019-02-17T14:03:09.828Z,588.00
2019-02-17T14:03:48.975Z,620.00
2019-02-17T14:04:20.834Z,668.00
2019-02-17T14:04:56.182Z,632.00
2019-02-17T14:05:31.595Z,616.00
2019-02-17T14:06:07.225Z,612.00
2019-02-17T14:06:42.627Z,604.00
2019-02-17T14:07:18.054Z,600.00
2019-02-17T14:07:53.454Z,588.00
2019-02-17T14:08:31.229Z,584.00
2019-02-17T14:09:04.030Z,588.00
2019-02-17T14:09:39.674Z,596.00
2019-02-17T14:10:15.097Z,596.00
2019-02-17T14:10:50.732Z,588.00
2019-02-17T14:11:26.154Z,580.00
2019-02-17T14:12:04.887Z,556.00
2019-02-17T14:12:40.314Z,548.00
2019-02-17T14:13:15.871Z,564.00
2019-02-17T14:13:51.447Z,564.00
2019-02-17T14:14:26.835Z,572.00
2019-02-17T14:15:02.236Z,564.00
2019-02-17T14:15:38.410Z,576.00
2019-02-17T14:16:13.604Z,552.00
2019-02-17T14:16:48.947Z,532.00
2019-02-17T14:17:24.247Z,532.00
2019-02-17T14:17:59.702Z,536.00
2019-02-17T14:18:34.995Z,532.00
2019-02-17T14:19:10.215Z,528.00
2019-02-17T14:19:46.032Z,524.00
2019-02-17T14:20:20.888Z,512.00
2019-02-17T14:20:56.386Z,568.00
2019-02-17T14:21:31.725Z,504.00
2019-02-17T14:22:07.115Z,532.00
2019-02-17T14:22:42.548Z,572.00
2019-02-17T14:23:17.834Z,524.00
2019-02-17T14:23:53.092Z,512.00
2019-02-17T14:24:28.417Z,504.00
2019-02-17T14:25:03.784Z,496.00
2019-02-17T14:25:38.881Z,504.00
2019-02-17T14:26:14.428Z,520.00
2019-02-17T14:26:49.569Z,500.00
2019-02-17T14:27:24.886Z,516.00
2019-02-17T14:28:00.290Z,488.00
2019-02-17T14:28:35.535Z,500.00
2019-02-17T14:29:10.946Z,480.00
2019-02-17T14:29:46.478Z,476.00
2019-02-17T14:30:21.804Z,484.00
2019-02-17T14:30:57.040Z,480.00
2019-02-17T14:31:32.385Z,484.00
2019-02-17T14:32:07.610Z,488.00
2019-02-17T14:32:42.939Z,484.00
2019-02-17T14:33:18.273Z,528.00
2019-02-17T14:33:58.512Z,524.00
2019-02-17T14:34:28.810Z,484.00
2019-02-17T14:35:04.422Z,492.00
2019-02-17T14:35:39.890Z,480.00
2019-02-17T14:36:15.213Z,464.00
2019-02-17T14:36:50.653Z,496.00
2019-02-17T14:37:26.249Z,508.00
2019-02-17T14:38:01.595Z,456.00
2019-02-17T14:38:36.682Z,520.00
2019-02-17T14:39:12.138Z,492.00
2019-02-17T14:39:47.639Z,480.00
2019-02-17T14:40:22.889Z,492.00
2019-02-17T14:40:58.121Z,480.00
2019-02-17T14:41:33.358Z,520.00
2019-02-17T14:42:08.648Z,488.00
2019-02-17T14:42:44.424Z,504.00
2019-02-17T14:43:19.725Z,472.00
2019-02-17T14:43:55.051Z,488.00
2019-02-17T14:44:30.361Z,476.00
2019-02-17T14:45:05.587Z,528.00
2019-02-17T14:45:40.975Z,464.00
2019-02-17T14:46:17.476Z,460.00
2019-02-17T14:46:52.839Z,464.00
2019-02-17T14:47:28.798Z,460.00
2019-02-17T14:48:04.581Z,452.00
2019-02-17T14:48:39.913Z,476.00
2019-02-17T14:49:15.318Z,456.00
2019-02-17T14:49:50.908Z,500.00
2019-02-17T14:50:26.508Z,492.00
2019-02-17T14:51:02.017Z,444.00
2019-02-17T14:51:37.586Z,468.00
2019-02-17T14:52:13.110Z,464.00
2019-02-17T14:52:48.417Z,440.00
2019-02-17T14:53:23.763Z,456.00
2019-02-17T14:53:59.255Z,460.00
2019-02-17T14:54:34.693Z,460.00
2019-02-17T14:55:10.211Z,460.00
2019-02-17T14:55:45.559Z,444.00
2019-02-17T14:56:21.045Z,488.00
2019-02-17T14:56:56.955Z,448.00
2019-02-17T14:57:32.460Z,456.00
2019-02-17T14:58:08.029Z,444.00
2019-02-17T14:58:43.324Z,452.00
2019-02-17T14:59:18.744Z,448.00
2019-02-17T14:59:54.040Z,432.00
2019-02-17T15:00:29.469Z,460.00
2019-02-17T15:01:04.779Z,444.00
2019-02-17T15:01:40.112Z,424.00
2019-02-17T15:02:15.535Z,424.00
2019-02-17T15:02:50.868Z,440.00
2019-02-17T15:03:26.066Z,420.00
2019-02-17T15:04:08.479Z,440.00
2019-02-17T15:04:36.794Z,480.00
2019-02-17T15:05:12.227Z,444.00
2019-02-17T15:05:48.014Z,436.00
2019-02-17T15:06:23.075Z,464.00
2019-02-17T15:06:58.694Z,428.00
2019-02-17T15:07:33.971Z,416.00
2019-02-17T15:08:09.363Z,408.00
2019-02-17T15:08:44.686Z,404.00
2019-02-17T15:09:20.186Z,380.00
2019-02-17T15:09:55.598Z,392.00
2019-02-17T15:10:30.903Z,436.00
2019-02-17T15:11:06.651Z,392.00
2019-02-17T15:11:42.256Z,436.00
2019-02-17T15:12:17.679Z,400.00
2019-02-17T15:12:53.381Z,448.00
2019-02-17T15:13:28.735Z,396.00
2019-02-17T15:14:04.156Z,400.00
2019-02-17T15:14:39.362Z,384.00
2019-02-17T15:15:14.581Z,388.00
2019-02-17T15:15:50.099Z,388.00
2019-02-17T15:16:25.351Z,384.00
2019-02-17T15:17:00.561Z,376.00
2019-02-17T15:17:35.971Z,388.00
2019-02-17T15:18:11.232Z,412.00
2019-02-17T15:18:47.480Z,380.00
2019-02-17T15:19:22.373Z,372.00
2019-02-17T15:19:57.860Z,348.00
2019-02-17T15:20:33.289Z,376.00
2019-02-17T15:21:08.610Z,360.00
2019-02-17T15:21:43.848Z,356.00
2019-02-17T15:22:19.249Z,344.00
2019-02-17T15:22:54.635Z,344.00
2019-02-17T15:23:30.580Z,344.00
2019-02-17T15:24:07.860Z,348.00
2019-02-17T15:24:41.465Z,328.00
2019-02-17T15:25:16.779Z,368.00
2019-02-17T15:25:52.087Z,364.00
2019-02-17T15:26:28.012Z,340.00
2019-02-17T15:27:03.757Z,340.00
2019-02-17T15:27:38.800Z,344.00
2019-02-17T15:28:14.189Z,328.00
2019-02-17T15:28:51.361Z,328.00
2019-02-17T15:29:24.648Z,320.00
2019-02-17T15:29:59.823Z,312.00
2019-02-17T15:30:35.323Z,308.00
2019-02-17T15:31:10.940Z,312.00
2019-02-17T15:31:46.253Z,304.00
2019-02-17T15:32:21.949Z,300.00
2019-02-17T15:33:03.606Z,296.00
2019-02-17T15:33:32.717Z,300.00
2019-02-17T15:34:08.043Z,296.00
2019-02-17T15:34:43.475Z,284.00
2019-02-17T15:35:18.887Z,308.00